createdAt,value
2022-12-09T00:03:08.935Z,997.758
2022-12-09T00:23:07.661Z,997.8
2022-12-09T00:43:08.245Z,997.829
2022-12-09T01:03:10.177Z,997.925
2022-12-09T01:23:08.525Z,997.862
2022-12-09T01:43:08.013Z,997.93
2022-12-09T02:03:09.491Z,997.683
2022-12-09T02:23:07.500Z,997.727
2022-12-09T02:43:07.886Z,997.667
2022-12-09T03:03:09.733Z,997.522
2022-12-09T03:23:08.033Z,997.493
2022-12-09T03:43:08.355Z,997.314
2022-12-09T04:03:08.875Z,997.275
2022-12-09T04:23:08.724Z,997.266
2022-12-09T04:43:08.326Z,997.053
2022-12-09T05:03:09.363Z,997.069
2022-12-09T05:23:11.491Z,996.934
2022-12-09T05:43:08.350Z,996.91
2022-12-09T06:03:09.575Z,996.964
2022-12-09T06:23:08.550Z,996.98
2022-12-09T06:43:08.083Z,996.863
2022-12-09T07:03:10.909Z,996.89
2022-12-09T07:23:08.815Z,997.11
2022-12-09T07:43:08.841Z,997.167
2022-12-09T08:03:09.566Z,997.185
2022-12-09T08:23:09.010Z,997.226
2022-12-09T08:43:08.974Z,997.357
2022-12-09T09:43:09.025Z,997.498
2022-12-09T10:03:10.993Z,997.479
2022-12-09T10:23:09.545Z,997.24
2022-12-09T10:43:08.804Z,997.105
2022-12-09T11:03:09.942Z,997.209
2022-12-09T11:23:09.847Z,997.137
2022-12-09T11:43:07.736Z,997.002
2022-12-09T12:03:08.701Z,996.9
2022-12-09T12:23:07.599Z,996.905
2022-12-09T12:43:07.639Z,996.811
2022-12-09T13:03:10.434Z,996.775
2022-12-09T13:23:07.312Z,996.688
2022-12-09T13:43:07.188Z,996.607
2022-12-09T14:03:09.495Z,996.667
2022-12-09T14:23:07.429Z,996.58
2022-12-09T14:43:07.385Z,996.549
2022-12-09T15:03:45.955Z,996.639
2022-12-09T15:23:07.975Z,996.697
2022-12-09T15:43:07.998Z,996.729
2022-12-09T16:03:09.203Z,996.891
2022-12-09T16:23:08.080Z,996.925
2022-12-09T16:43:08.200Z,996.938
2022-12-09T17:03:08.122Z,997.106
2022-12-09T17:23:08.131Z,997.17
2022-12-09T17:43:07.283Z,997.307
2022-12-09T18:23:07.651Z,997.496
2022-12-09T18:43:07.715Z,997.535
2022-12-09T19:03:08.702Z,997.689
2022-12-09T19:23:07.616Z,997.653
2022-12-09T19:43:08.049Z,997.751
2022-12-09T20:03:09.223Z,997.862
2022-12-09T20:23:07.252Z,997.715
2022-12-09T20:43:07.328Z,997.797
2022-12-09T21:03:08.535Z,997.969
2022-12-09T21:23:35.389Z,998.058
2022-12-09T21:43:07.500Z,998.117
2022-12-09T22:03:08.746Z,998.202
2022-12-09T22:23:07.671Z,998.372
2022-12-09T22:43:07.764Z,998.315
2022-12-09T23:03:08.500Z,998.39
2022-12-09T23:23:07.306Z,998.521
2022-12-09T23:43:08.145Z,998.523
